createdAt,value
2019-04-06T00:01:51.556Z,26.40
2019-04-06T00:04:18.566Z,24.80
2019-04-06T00:06:45.696Z,27.93
2019-04-06T00:09:12.937Z,27.13
2019-04-06T00:11:40.213Z,25.47
2019-04-06T00:14:07.142Z,26.37
2019-04-06T00:16:34.058Z,25.67
2019-04-06T00:19:01.152Z,26.53
2019-04-06T00:21:29.045Z,27.47
2019-04-06T00:23:56.049Z,26.30
2019-04-06T00:26:22.928Z,26.47
2019-04-06T00:28:49.952Z,26.97
2019-04-06T00:31:28.943Z,26.40
2019-04-06T00:33:55.832Z,25.90
2019-04-06T00:36:22.837Z,26.67
2019-04-06T00:38:49.700Z,26.83
2019-04-06T00:41:16.686Z,26.13
2019-04-06T00:43:43.811Z,26.30
2019-04-06T00:46:10.693Z,26.30
2019-04-06T00:48:37.569Z,25.50
2019-04-06T00:51:04.549Z,26.13
2019-04-06T00:53:31.459Z,25.47
2019-04-06T00:55:58.326Z,25.80
2019-04-06T00:58:25.236Z,25.80
2019-04-06T01:00:53.135Z,25.07
2019-04-06T01:03:20.307Z,26.33
2019-04-06T01:05:47.284Z,24.90
2019-04-06T01:08:14.541Z,24.73
2019-04-06T01:10:41.597Z,25.03
2019-04-06T01:13:08.522Z,24.33
2019-04-06T01:15:35.447Z,26.00
2019-04-06T01:18:02.419Z,25.53
2019-04-06T01:20:29.443Z,25.93
2019-04-06T01:22:56.478Z,25.90
2019-04-06T01:25:23.973Z,24.63
2019-04-06T01:27:51.006Z,25.80
2019-04-06T01:30:18.085Z,25.87
2019-04-06T01:32:45.029Z,25.17
2019-04-06T01:35:11.961Z,24.43
2019-04-06T01:37:39.073Z,25.27
2019-04-06T01:40:06.226Z,25.53
2019-04-06T01:42:33.190Z,24.20
2019-04-06T01:45:00.083Z,25.47
2019-04-06T01:47:27.003Z,23.10
2019-04-06T01:49:53.960Z,24.67
2019-04-06T01:52:21.057Z,25.77
2019-04-06T01:54:48.103Z,24.63
2019-04-06T01:57:14.973Z,24.97
2019-04-06T01:59:41.869Z,24.30
2019-04-06T02:02:14.040Z,23.83
2019-04-06T02:04:40.921Z,24.07
2019-04-06T02:07:08.021Z,23.67
2019-04-06T02:09:34.929Z,24.30
2019-04-06T02:12:02.071Z,23.77
2019-04-06T02:14:29.066Z,25.03
2019-04-06T02:16:56.084Z,25.87
2019-04-06T02:19:23.283Z,25.03
2019-04-06T02:21:50.342Z,24.53
2019-04-06T02:24:17.275Z,24.70
2019-04-06T02:26:44.168Z,24.53
2019-04-06T02:29:11.080Z,23.10
2019-04-06T02:31:55.829Z,24.37
2019-04-06T02:34:40.998Z,23.63
2019-04-06T02:37:26.481Z,23.93
2019-04-06T02:40:07.455Z,24.13
2019-04-06T02:42:55.371Z,24.03
2019-04-06T02:45:22.530Z,24.20
2019-04-06T02:47:49.458Z,24.30
2019-04-06T02:50:16.600Z,23.23
2019-04-06T02:52:43.535Z,23.53
2019-04-06T02:55:10.649Z,24.27
2019-04-06T02:57:37.743Z,24.17
2019-04-06T03:00:04.906Z,23.80
2019-04-06T03:02:32.097Z,23.03
2019-04-06T03:04:59.063Z,23.63
2019-04-06T03:07:26.149Z,23.40
2019-04-06T03:09:53.378Z,23.03
2019-04-06T03:12:20.274Z,23.33
2019-04-06T03:14:47.663Z,24.30
2019-04-06T03:17:15.104Z,22.77
2019-04-06T03:19:42.007Z,24.33
2019-04-06T03:22:09.007Z,23.10
2019-04-06T03:24:35.919Z,25.00
2019-04-06T03:27:03.306Z,24.20
2019-04-06T03:29:31.127Z,23.90
2019-04-06T03:31:58.241Z,25.20
2019-04-06T03:34:25.456Z,24.57
2019-04-06T03:36:52.580Z,24.00
2019-04-06T03:39:19.497Z,23.47
2019-04-06T03:41:46.416Z,23.30
2019-04-06T03:44:13.396Z,23.87
2019-04-06T03:46:40.546Z,24.30
2019-04-06T03:49:07.505Z,24.30
2019-04-06T03:51:34.486Z,24.20
2019-04-06T03:54:01.410Z,23.03
2019-04-06T03:56:28.595Z,25.10
2019-04-06T03:58:55.698Z,23.60
2019-04-06T04:01:22.617Z,25.83
2019-04-06T04:03:49.518Z,24.77
2019-04-06T04:06:16.498Z,24.20
2019-04-06T04:08:43.436Z,23.33
2019-04-06T04:11:10.588Z,23.03
2019-04-06T04:13:37.712Z,23.10
2019-04-06T04:16:04.622Z,24.00
2019-04-06T04:18:31.790Z,24.03
2019-04-06T04:20:58.676Z,23.40
2019-04-06T04:23:25.574Z,24.20
2019-04-06T04:25:52.500Z,23.27
2019-04-06T04:28:19.527Z,23.40
2019-04-06T04:30:46.533Z,23.67
2019-04-06T04:33:13.573Z,23.50
2019-04-06T04:35:40.443Z,22.10
2019-04-06T04:38:07.399Z,23.77
2019-04-06T04:40:34.532Z,24.17
2019-04-06T04:43:01.497Z,23.30
2019-04-06T04:45:29.152Z,23.53
2019-04-06T04:47:56.296Z,23.90
2019-04-06T04:50:23.371Z,23.90
2019-04-06T04:52:50.396Z,23.17
2019-04-06T04:55:17.509Z,24.50
2019-04-06T04:57:45.591Z,23.70
2019-04-06T05:00:13.207Z,23.43
2019-04-06T05:02:40.281Z,23.13
2019-04-06T05:05:09.372Z,22.77
2019-04-06T05:07:36.704Z,22.87
2019-04-06T05:10:04.173Z,23.57
2019-04-06T05:12:31.491Z,22.37
2019-04-06T05:15:01.353Z,22.93
2019-04-06T05:17:28.697Z,23.90
2019-04-06T05:19:55.917Z,23.90
2019-04-06T05:22:23.028Z,23.40
2019-04-06T05:24:50.088Z,22.10
2019-04-06T05:27:17.156Z,22.27
2019-04-06T05:29:44.336Z,22.70
2019-04-06T05:32:11.506Z,22.67
2019-04-06T05:34:38.551Z,21.43
2019-04-06T05:37:05.613Z,22.17
2019-04-06T05:39:33.660Z,23.27
2019-04-06T05:42:00.926Z,24.20
2019-04-06T05:44:27.973Z,22.33
2019-04-06T05:46:54.850Z,23.50
2019-04-06T05:49:21.940Z,22.10
2019-04-06T05:51:48.804Z,22.63
2019-04-06T05:54:15.940Z,23.10
2019-04-06T05:56:43.119Z,23.43
2019-04-06T05:59:10.893Z,21.83
2019-04-06T06:01:40.349Z,21.73
2019-04-06T06:04:08.811Z,24.70
2019-04-06T06:06:36.490Z,23.03
2019-04-06T06:09:05.527Z,23.10
2019-04-06T06:11:32.390Z,22.73
2019-04-06T06:13:59.253Z,22.10
2019-04-06T06:16:26.214Z,23.13
2019-04-06T06:18:53.360Z,21.93
2019-04-06T06:21:20.378Z,22.03
2019-04-06T06:23:47.645Z,22.90
2019-04-06T06:26:16.230Z,22.20
2019-04-06T06:28:43.295Z,22.43
2019-04-06T06:31:10.209Z,22.63
2019-04-06T06:33:37.265Z,21.87
2019-04-06T06:36:04.407Z,21.83
2019-04-06T06:38:31.286Z,21.17
2019-04-06T06:40:58.401Z,22.53
2019-04-06T06:43:25.307Z,22.20
2019-04-06T06:45:53.511Z,20.87
2019-04-06T06:48:20.511Z,21.23
2019-04-06T06:50:47.408Z,22.00
2019-04-06T06:53:14.499Z,21.47
2019-04-06T06:55:41.411Z,22.20
2019-04-06T06:58:09.041Z,21.37
2019-04-06T07:00:36.057Z,20.50
2019-04-06T07:03:03.255Z,22.60
2019-04-06T07:05:30.217Z,22.33
2019-04-06T07:07:57.334Z,21.43
2019-04-06T07:10:24.317Z,21.47
2019-04-06T07:12:51.293Z,21.20
2019-04-06T07:15:18.277Z,22.00
2019-04-06T07:17:45.431Z,20.43
2019-04-06T07:20:12.910Z,20.47
2019-04-06T07:22:40.081Z,22.07
2019-04-06T07:25:07.369Z,20.60
2019-04-06T07:27:34.381Z,21.10
2019-04-06T07:30:01.518Z,20.77
2019-04-06T07:32:28.449Z,20.27
2019-04-06T07:34:55.487Z,21.17
2019-04-06T07:37:22.563Z,20.60
2019-04-06T07:39:49.695Z,20.10
2019-04-06T07:42:16.570Z,20.33
2019-04-06T07:44:43.536Z,20.57
2019-04-06T07:47:10.598Z,20.20
2019-04-06T07:49:37.501Z,20.23
2019-04-06T07:52:04.661Z,21.13
2019-04-06T07:54:31.703Z,20.47
2019-04-06T07:56:58.756Z,20.13
2019-04-06T07:59:25.982Z,20.40
2019-04-06T08:01:53.107Z,20.50
2019-04-06T08:04:20.027Z,20.53
2019-04-06T08:06:47.116Z,20.03
2019-04-06T08:09:14.068Z,20.97
2019-04-06T08:11:40.939Z,20.40
2019-04-06T08:14:07.893Z,20.83
2019-04-06T08:16:34.807Z,20.00
2019-04-06T08:19:01.965Z,19.70
2019-04-06T08:21:29.020Z,20.80
2019-04-06T08:23:55.949Z,19.93
2019-04-06T08:26:22.895Z,19.53
2019-04-06T08:28:59.467Z,20.60
2019-04-06T08:31:19.128Z,18.97
2019-04-06T08:33:46.324Z,19.83
2019-04-06T08:36:13.262Z,20.37
2019-04-06T08:38:40.505Z,19.93
2019-04-06T08:41:07.776Z,19.50
2019-04-06T08:43:34.676Z,19.37
2019-04-06T08:46:01.684Z,19.00
2019-04-06T08:48:28.629Z,19.50
2019-04-06T08:50:55.682Z,18.47
2019-04-06T08:53:22.888Z,19.53
2019-04-06T08:55:49.918Z,20.90
2019-04-06T08:58:17.129Z,20.13
2019-04-06T09:00:44.111Z,20.13
2019-04-06T09:03:11.103Z,20.67
2019-04-06T09:05:38.081Z,19.03
2019-04-06T09:08:05.000Z,18.43
2019-04-06T09:10:31.884Z,19.20
2019-04-06T09:12:58.769Z,18.77
2019-04-06T09:15:25.649Z,19.33
2019-04-06T09:17:52.593Z,19.77
2019-04-06T09:20:19.487Z,19.67
2019-04-06T09:22:46.548Z,17.93
2019-04-06T09:25:13.647Z,19.10
2019-04-06T09:27:40.611Z,19.07
2019-04-06T09:30:08.101Z,18.67
2019-04-06T09:32:35.060Z,18.57
2019-04-06T09:35:02.175Z,18.37
2019-04-06T09:37:29.139Z,20.77
2019-04-06T09:39:56.053Z,18.83
2019-04-06T09:42:23.043Z,18.80
2019-04-06T09:45:15.437Z,20.03
2019-04-06T09:48:02.243Z,19.93
2019-04-06T09:50:53.058Z,18.23
2019-04-06T09:54:05.745Z,18.07
2019-04-06T09:56:47.297Z,18.57
2019-04-06T09:59:36.236Z,19.17
2019-04-06T10:02:17.656Z,19.33
2019-04-06T10:05:02.589Z,20.57
2019-04-06T10:07:37.048Z,19.23
2019-04-06T10:10:27.239Z,20.40
2019-04-06T10:13:22.614Z,19.40
2019-04-06T10:16:10.789Z,19.67
2019-04-06T10:19:12.020Z,20.33
2019-04-06T10:22:06.147Z,20.07
2019-04-06T10:24:53.243Z,19.83
2019-04-06T10:27:38.552Z,19.67
2019-04-06T10:30:16.507Z,20.37
2019-04-06T10:32:53.000Z,21.17
2019-04-06T10:35:39.799Z,20.90
2019-04-06T10:38:26.402Z,20.20
2019-04-06T10:41:06.034Z,19.60
2019-04-06T10:43:39.918Z,20.93
2019-04-06T10:46:17.675Z,20.23
2019-04-06T10:49:09.012Z,21.10
2019-04-06T10:51:52.855Z,21.30
2019-04-06T10:54:51.102Z,20.63
2019-04-06T10:57:42.905Z,21.03
2019-04-06T11:00:27.964Z,19.93
2019-04-06T11:03:17.469Z,20.47
2019-04-06T11:06:04.263Z,22.03
2019-04-06T11:08:51.174Z,21.40
2019-04-06T11:11:46.738Z,21.93
2019-04-06T11:14:45.045Z,21.30
2019-04-06T11:17:31.690Z,21.17
2019-04-06T11:20:15.964Z,21.77
2019-04-06T11:23:06.262Z,20.37
2019-04-06T11:25:52.828Z,20.80
2019-04-06T11:28:39.452Z,20.90
2019-04-06T11:31:26.337Z,22.90
2019-04-06T11:34:11.762Z,23.40
2019-04-06T11:36:53.518Z,22.13
2019-04-06T11:39:43.318Z,22.70
2019-04-06T11:42:31.762Z,21.87
2019-04-06T11:45:05.845Z,23.20
2019-04-06T11:47:42.639Z,22.70
2019-04-06T11:50:27.969Z,23.53
2019-04-06T11:53:07.607Z,21.87
2019-04-06T11:55:44.941Z,23.10
2019-04-06T11:58:21.399Z,23.10
2019-04-06T12:01:06.286Z,21.80
2019-04-06T12:03:55.782Z,21.80
2019-04-06T12:06:40.535Z,22.20
2019-04-06T12:09:21.754Z,22.27
2019-04-06T12:12:14.438Z,21.63
2019-04-06T12:14:50.765Z,21.77
2019-04-06T12:17:43.050Z,22.47
2019-04-06T12:20:19.646Z,21.13
2019-04-06T12:22:55.509Z,22.47
2019-04-06T12:25:38.109Z,22.47
2019-04-06T12:28:36.363Z,22.30
2019-04-06T12:31:41.137Z,23.70
2019-04-06T12:34:18.074Z,22.83
2019-04-06T12:36:51.432Z,23.40
2019-04-06T12:39:28.357Z,22.60
2019-04-06T12:42:25.242Z,22.93
2019-04-06T12:45:07.249Z,22.13
2019-04-06T12:47:48.298Z,23.00
2019-04-06T12:50:46.116Z,24.10
2019-04-06T12:53:38.518Z,23.43
2019-04-06T12:56:37.106Z,24.43
2019-04-06T12:59:13.153Z,23.17
2019-04-06T13:01:52.422Z,25.83
2019-04-06T13:04:44.594Z,24.13
2019-04-06T13:07:24.838Z,24.17
2019-04-06T13:10:02.829Z,23.93
2019-04-06T13:12:53.317Z,22.17
2019-04-06T13:15:42.996Z,22.43
2019-04-06T13:18:32.358Z,23.90
2019-04-06T13:21:34.248Z,23.90
2019-04-06T13:24:09.034Z,24.07
2019-04-06T13:26:43.023Z,23.20
2019-04-06T13:29:18.117Z,21.80
2019-04-06T13:32:06.223Z,22.43
2019-04-06T13:34:56.081Z,23.17
2019-04-06T13:37:31.621Z,22.53
2019-04-06T13:40:27.342Z,22.60
2019-04-06T13:43:05.506Z,22.93
2019-04-06T13:45:44.101Z,23.73
2019-04-06T13:48:22.206Z,22.87
2019-04-06T13:51:11.465Z,24.17
2019-04-06T13:53:52.169Z,23.80
2019-04-06T13:56:37.334Z,23.07
2019-04-06T13:59:29.703Z,22.87
2019-04-06T14:02:19.389Z,23.07
2019-04-06T14:05:13.067Z,22.83
2019-04-06T14:07:53.016Z,22.20
2019-04-06T14:10:27.621Z,25.90
2019-04-06T14:13:16.927Z,25.67
2019-04-06T14:16:03.635Z,23.70
2019-04-06T14:18:46.507Z,22.73
2019-04-06T14:21:51.087Z,25.50
2019-04-06T14:24:44.212Z,24.57
2019-04-06T14:27:27.969Z,23.80
2019-04-06T14:30:02.746Z,24.73
2019-04-06T14:32:45.818Z,23.03
2019-04-06T14:35:23.849Z,21.60
2019-04-06T14:38:09.007Z,22.43
2019-04-06T14:40:43.540Z,21.30
2019-04-06T14:43:29.390Z,20.57
2019-04-06T14:46:05.357Z,20.03
2019-04-06T14:48:51.100Z,21.23
2019-04-06T14:51:33.791Z,21.17
2019-04-06T14:54:07.969Z,20.77
2019-04-06T14:56:52.341Z,20.30
2019-04-06T14:59:32.605Z,26.47
2019-04-06T15:02:15.063Z,25.20
2019-04-06T15:05:02.256Z,20.80
2019-04-06T15:07:38.637Z,20.60
2019-04-06T15:10:20.627Z,20.37
2019-04-06T15:13:25.441Z,18.50
2019-04-06T15:16:14.685Z,21.37
2019-04-06T15:19:06.877Z,19.90
2019-04-06T15:21:47.265Z,19.23
2019-04-06T15:24:32.807Z,19.33
2019-04-06T15:27:31.818Z,17.63
2019-04-06T15:30:16.844Z,19.80
2019-04-06T15:33:04.152Z,16.60
2019-04-06T15:35:49.475Z,15.10
2019-04-06T15:38:28.140Z,15.27
2019-04-06T15:41:01.513Z,13.13
2019-04-06T15:43:56.943Z,14.53
2019-04-06T15:46:42.604Z,14.00
2019-04-06T15:49:29.754Z,14.67
2019-04-06T15:52:25.330Z,14.03
2019-04-06T15:55:17.148Z,14.20
2019-04-06T15:57:51.973Z,14.50
2019-04-06T16:00:25.189Z,14.43
2019-04-06T16:03:10.890Z,12.97
2019-04-06T16:05:58.242Z,13.90
2019-04-06T16:08:34.708Z,12.93
2019-04-06T16:11:27.830Z,13.43
2019-04-06T16:14:20.602Z,14.00
2019-04-06T16:16:56.596Z,14.83
2019-04-06T16:19:31.445Z,13.93
2019-04-06T16:22:16.548Z,13.47
2019-04-06T16:24:50.206Z,14.23
2019-04-06T16:27:35.589Z,13.80
2019-04-06T16:30:22.795Z,13.83
2019-04-06T16:33:12.732Z,14.03
2019-04-06T16:36:17.489Z,13.10
2019-04-06T16:39:12.963Z,13.43
2019-04-06T16:41:53.193Z,14.43
2019-04-06T16:44:47.690Z,13.27
2019-04-06T16:47:19.870Z,13.77
2019-04-06T16:49:54.178Z,13.77
2019-04-06T16:52:39.372Z,14.20
2019-04-06T16:55:22.438Z,14.00
2019-04-06T16:58:07.575Z,13.93
2019-04-06T17:00:44.981Z,13.23
2019-04-06T17:03:43.514Z,13.30
2019-04-06T17:06:27.013Z,14.00
2019-04-06T17:09:19.677Z,15.27
2019-04-06T17:12:07.253Z,14.43
2019-04-06T17:14:48.052Z,13.73
2019-04-06T17:17:33.664Z,13.33
2019-04-06T17:20:30.773Z,13.70
2019-04-06T17:23:35.649Z,13.03
2019-04-06T17:26:25.981Z,13.97
2019-04-06T17:29:02.591Z,14.47
2019-04-06T17:31:48.029Z,14.00
2019-04-06T17:34:29.526Z,14.47
2019-04-06T17:37:05.248Z,15.27
2019-04-06T17:39:46.597Z,15.43
2019-04-06T17:42:33.997Z,16.23
2019-04-06T17:45:27.690Z,15.77
2019-04-06T17:48:03.971Z,15.23
2019-04-06T17:50:51.035Z,16.47
2019-04-06T17:53:37.333Z,17.63
2019-04-06T17:56:14.037Z,18.83
2019-04-06T17:58:58.962Z,18.93
2019-04-06T18:01:57.894Z,20.00
2019-04-06T18:04:35.415Z,21.37
2019-04-06T18:07:30.110Z,22.93
2019-04-06T18:10:04.910Z,24.43
2019-04-06T18:13:06.757Z,25.07
2019-04-06T18:15:33.728Z,26.30
2019-04-06T18:18:00.765Z,26.67
2019-04-06T18:20:27.723Z,27.30
2019-04-06T18:22:54.777Z,28.23
2019-04-06T18:25:22.016Z,28.07
2019-04-06T18:27:49.317Z,29.60
2019-04-06T18:30:17.819Z,28.50
2019-04-06T18:33:01.419Z,28.43
2019-04-06T18:35:26.189Z,30.70
2019-04-06T18:38:01.387Z,30.37
2019-04-06T18:40:29.056Z,29.90
2019-04-06T18:42:56.284Z,30.07
2019-04-06T18:45:23.396Z,29.83
2019-04-06T18:47:50.700Z,29.07
2019-04-06T18:50:18.431Z,29.23
2019-04-06T18:52:45.408Z,30.70
2019-04-06T18:55:12.871Z,29.13
2019-04-06T18:57:40.281Z,30.47
2019-04-06T19:00:11.548Z,30.23
2019-04-06T19:02:38.184Z,30.57
2019-04-06T19:05:06.396Z,30.00
2019-04-06T19:07:33.850Z,30.50
2019-04-06T19:10:01.588Z,30.20
2019-04-06T19:12:28.856Z,31.33
2019-04-06T19:14:55.859Z,30.47
2019-04-06T19:17:22.853Z,31.13
2019-04-06T19:19:49.996Z,30.17
2019-04-06T19:22:17.287Z,31.00
2019-04-06T19:24:44.555Z,32.53
2019-04-06T19:27:12.534Z,31.77
2019-04-06T19:29:39.554Z,33.43
2019-04-06T19:32:06.635Z,30.80
2019-04-06T19:34:33.510Z,33.03
2019-04-06T19:37:00.388Z,31.27
2019-04-06T19:39:27.374Z,31.97
2019-04-06T19:41:54.269Z,32.73
2019-04-06T19:44:21.633Z,31.87
2019-04-06T19:46:48.962Z,32.97
2019-04-06T19:49:15.886Z,33.53
2019-04-06T19:51:43.019Z,34.37
2019-04-06T19:54:10.224Z,36.93
2019-04-06T19:56:37.626Z,33.77
2019-04-06T19:59:05.027Z,33.13
2019-04-06T20:01:32.091Z,34.60
2019-04-06T20:03:59.143Z,37.07
2019-04-06T20:06:26.388Z,36.17
2019-04-06T20:08:53.275Z,35.30
2019-04-06T20:11:20.773Z,35.30
2019-04-06T20:13:48.337Z,34.40
2019-04-06T20:16:15.319Z,38.23
2019-04-06T20:18:42.321Z,35.83
2019-04-06T20:21:09.780Z,34.40
2019-04-06T20:23:36.856Z,35.87
2019-04-06T20:26:04.652Z,34.47
2019-04-06T20:28:32.072Z,35.00
2019-04-06T20:31:00.122Z,34.60
2019-04-06T20:33:26.990Z,35.67
2019-04-06T20:35:54.487Z,37.83
2019-04-06T20:38:21.878Z,36.07
2019-04-06T20:40:49.372Z,37.50
2019-04-06T20:43:16.403Z,39.57
2019-04-06T20:45:43.754Z,36.20
2019-04-06T20:48:10.690Z,35.37
2019-04-06T20:50:37.576Z,38.97
2019-04-06T20:53:04.624Z,38.90
2019-04-06T20:55:31.543Z,38.30
2019-04-06T20:57:58.476Z,34.17
2019-04-06T21:00:26.729Z,36.63
2019-04-06T21:02:53.753Z,36.17
2019-04-06T21:05:20.966Z,35.47
2019-04-06T21:07:48.484Z,34.87
2019-04-06T21:10:15.575Z,35.67
2019-04-06T21:12:43.246Z,36.70
2019-04-06T21:15:18.313Z,36.23
2019-04-06T21:17:39.842Z,34.10
2019-04-06T21:20:07.402Z,36.63
2019-04-06T21:22:34.459Z,35.47
2019-04-06T21:25:01.321Z,36.60
2019-04-06T21:27:28.763Z,36.77
2019-04-06T21:29:56.117Z,37.37
2019-04-06T21:32:23.171Z,36.13
2019-04-06T21:34:50.440Z,36.40
2019-04-06T21:37:17.850Z,37.17
2019-04-06T21:39:46.764Z,38.53
2019-04-06T21:42:14.445Z,36.73
2019-04-06T21:44:41.615Z,37.93
2019-04-06T21:47:08.588Z,38.13
2019-04-06T21:49:35.734Z,36.47
2019-04-06T21:52:03.129Z,39.60
2019-04-06T21:54:30.748Z,39.40
2019-04-06T21:56:58.237Z,39.07
2019-04-06T21:59:25.743Z,39.20
2019-04-06T22:01:53.362Z,39.90
2019-04-06T22:04:25.829Z,38.90
2019-04-06T22:06:49.158Z,37.73
2019-04-06T22:09:16.469Z,37.23
2019-04-06T22:11:44.580Z,37.77
2019-04-06T22:14:11.577Z,38.33
2019-04-06T22:16:39.111Z,37.33
2019-04-06T22:19:06.637Z,38.27
2019-04-06T22:21:33.712Z,37.63
2019-04-06T22:24:01.245Z,38.77
2019-04-06T22:26:28.425Z,39.23
2019-04-06T22:28:56.019Z,36.77
2019-04-06T22:31:23.085Z,39.27
2019-04-06T22:33:50.173Z,37.77
2019-04-06T22:36:17.717Z,39.30
2019-04-06T22:38:44.680Z,38.33
2019-04-06T22:41:11.795Z,38.93
2019-04-06T22:43:38.968Z,39.73
2019-04-06T22:46:05.994Z,39.43
2019-04-06T22:48:33.524Z,38.70
2019-04-06T22:51:00.533Z,39.30
2019-04-06T22:53:28.210Z,37.63
2019-04-06T22:55:55.190Z,39.37
2019-04-06T22:58:22.614Z,40.20
2019-04-06T23:01:00.498Z,40.17
2019-04-06T23:03:50.462Z,40.83
2019-04-06T23:06:24.404Z,38.63
2019-04-06T23:08:51.591Z,38.07
2019-04-06T23:11:18.673Z,39.60
2019-04-06T23:13:46.042Z,39.93
2019-04-06T23:16:12.946Z,38.37
2019-04-06T23:18:40.033Z,40.40
2019-04-06T23:21:07.621Z,39.77
2019-04-06T23:23:35.946Z,40.03
2019-04-06T23:26:03.145Z,40.33
2019-04-06T23:28:30.564Z,38.27
2019-04-06T23:30:58.568Z,37.70
2019-04-06T23:33:25.636Z,39.47
2019-04-06T23:35:52.986Z,38.27
2019-04-06T23:38:20.166Z,40.27
2019-04-06T23:40:47.353Z,37.90
2019-04-06T23:43:14.927Z,37.80
2019-04-06T23:45:42.789Z,37.77
2019-04-06T23:48:09.912Z,37.77
2019-04-06T23:50:36.801Z,38.90
2019-04-06T23:53:04.741Z,36.90
2019-04-06T23:55:31.961Z,36.97
2019-04-06T23:57:59.177Z,38.27
